createdAt,value
2022-11-07T00:00:20.605Z,100.00
2022-11-07T00:02:47.015Z,100.00
2022-11-07T00:05:13.448Z,100.00
2022-11-07T00:07:39.860Z,100.00
2022-11-07T00:10:06.656Z,100.00
2022-11-07T00:12:36.514Z,100.00
2022-11-07T00:15:04.190Z,100.00
2022-11-07T00:17:30.631Z,100.00
2022-11-07T00:19:57.083Z,100.00
2022-11-07T00:22:23.774Z,100.00
2022-11-07T00:24:50.143Z,100.00
2022-11-07T00:27:16.591Z,100.00
2022-11-07T00:29:43.000Z,100.00
2022-11-07T00:32:09.427Z,100.00
2022-11-07T00:34:35.841Z,100.00
2022-11-07T00:37:02.941Z,100.00
2022-11-07T00:39:29.386Z,100.00
2022-11-07T00:41:55.775Z,100.00
2022-11-07T00:44:22.835Z,100.00
2022-11-07T00:46:49.297Z,100.00
2022-11-07T00:49:15.669Z,100.00
2022-11-07T00:51:42.635Z,100.00
2022-11-07T00:54:09.028Z,100.00
2022-11-07T00:56:35.477Z,100.00
2022-11-07T00:59:01.844Z,100.00
2022-11-07T01:01:29.569Z,100.00
2022-11-07T01:04:14.845Z,100.00
2022-11-07T01:06:42.114Z,100.00
2022-11-07T01:09:12.434Z,100.00
2022-11-07T01:11:39.719Z,100.00
2022-11-07T01:14:06.770Z,100.00
2022-11-07T01:16:35.436Z,100.00
2022-11-07T01:19:02.659Z,100.00
2022-11-07T01:21:29.144Z,100.00
2022-11-07T01:23:55.536Z,100.00
2022-11-07T01:26:22.015Z,100.00
2022-11-07T01:28:48.388Z,100.00
2022-11-07T01:31:15.720Z,100.00
2022-11-07T01:33:42.469Z,100.00
2022-11-07T01:36:11.372Z,100.00
2022-11-07T01:38:39.423Z,100.00
2022-11-07T01:41:21.229Z,100.00
2022-11-07T01:43:47.739Z,100.00
2022-11-07T01:46:14.428Z,100.00
2022-11-07T01:48:42.424Z,100.00
2022-11-07T01:51:09.075Z,100.00
2022-11-07T01:53:35.756Z,100.00
2022-11-07T01:56:04.036Z,100.00
2022-11-07T01:58:30.476Z,100.00
2022-11-07T02:00:56.866Z,100.00
2022-11-07T02:03:23.259Z,100.00
2022-11-07T02:05:53.420Z,100.00
2022-11-07T02:08:21.475Z,100.00
2022-11-07T02:10:47.965Z,100.00
2022-11-07T02:13:17.851Z,100.00
2022-11-07T02:15:44.211Z,100.00
2022-11-07T02:18:10.687Z,100.00
2022-11-07T02:20:37.089Z,100.00
2022-11-07T02:23:09.032Z,100.00
2022-11-07T02:25:36.325Z,100.00
2022-11-07T02:28:06.079Z,100.00
2022-11-07T02:30:34.647Z,100.00
2022-11-07T02:33:01.557Z,100.00
2022-11-07T02:35:34.833Z,100.00
2022-11-07T02:38:02.348Z,100.00
2022-11-07T02:40:30.450Z,100.00
2022-11-07T02:42:57.366Z,100.00
2022-11-07T02:45:26.694Z,100.00
2022-11-07T02:47:53.160Z,100.00
2022-11-07T02:50:19.688Z,100.00
2022-11-07T02:52:46.074Z,100.00
2022-11-07T02:55:12.843Z,100.00
2022-11-07T02:57:39.215Z,100.00
2022-11-07T03:00:06.421Z,100.00
2022-11-07T03:02:32.950Z,100.00
2022-11-07T03:04:59.459Z,100.00
2022-11-07T03:07:25.855Z,100.00
2022-11-07T03:09:52.471Z,100.00
2022-11-07T03:12:18.925Z,100.00
2022-11-07T03:14:45.338Z,100.00
2022-11-07T03:17:11.737Z,100.00
2022-11-07T03:19:38.157Z,100.00
2022-11-07T03:22:04.611Z,100.00
2022-11-07T03:24:32.533Z,100.00
2022-11-07T03:26:59.158Z,100.00
2022-11-07T03:29:25.547Z,100.00
2022-11-07T03:31:51.905Z,100.00
2022-11-07T03:34:18.257Z,100.00
2022-11-07T03:36:44.648Z,100.00
2022-11-07T03:39:11.040Z,100.00
2022-11-07T03:41:37.447Z,100.00
2022-11-07T03:44:03.855Z,100.00
2022-11-07T03:46:30.297Z,100.00
2022-11-07T03:48:56.739Z,100.00
2022-11-07T03:51:23.117Z,100.00
2022-11-07T03:53:49.514Z,100.00
2022-11-07T03:56:15.974Z,100.00
2022-11-07T03:58:42.379Z,100.00
2022-11-07T04:01:10.508Z,100.00
2022-11-07T04:03:37.198Z,100.00
2022-11-07T04:06:03.595Z,100.00
2022-11-07T04:08:29.982Z,100.00
2022-11-07T04:10:56.374Z,100.00
2022-11-07T04:13:41.461Z,100.00
2022-11-07T04:16:27.790Z,100.00
2022-11-07T04:18:54.382Z,100.00
2022-11-07T04:21:20.991Z,100.00
2022-11-07T04:23:47.351Z,100.00
2022-11-07T04:26:32.152Z,100.00
2022-11-07T04:28:58.713Z,100.00
2022-11-07T04:31:25.399Z,100.00
2022-11-07T04:33:52.146Z,100.00
2022-11-07T04:36:19.000Z,100.00
2022-11-07T04:38:45.445Z,100.00
2022-11-07T04:41:22.616Z,100.00
2022-11-07T04:43:49.193Z,100.00
2022-11-07T04:46:16.416Z,100.00
2022-11-07T04:48:43.654Z,100.00
2022-11-07T04:51:28.209Z,100.00
2022-11-07T04:53:55.796Z,100.00
2022-11-07T04:56:22.165Z,100.00
2022-11-07T04:58:48.608Z,100.00
2022-11-07T05:01:15.018Z,100.00
2022-11-07T05:03:42.196Z,100.00
2022-11-07T05:06:10.331Z,100.00
2022-11-07T05:08:36.705Z,100.00
2022-11-07T05:11:03.087Z,100.00
2022-11-07T05:13:29.471Z,100.00
2022-11-07T05:15:55.835Z,100.00
2022-11-07T05:18:25.126Z,100.00
2022-11-07T05:20:51.560Z,100.00
2022-11-07T05:23:22.161Z,100.00
2022-11-07T05:25:49.857Z,100.00
2022-11-07T05:28:28.087Z,100.00
2022-11-07T05:31:02.335Z,100.00
2022-11-07T05:33:28.944Z,100.00
2022-11-07T05:35:55.364Z,100.00
2022-11-07T05:38:21.722Z,100.00
2022-11-07T05:40:48.085Z,100.00
2022-11-07T05:43:15.446Z,100.00
2022-11-07T05:45:42.110Z,100.00
2022-11-07T05:48:10.104Z,100.00
2022-11-07T05:50:36.925Z,100.00
2022-11-07T05:53:03.948Z,100.00
2022-11-07T05:55:30.947Z,100.00
2022-11-07T05:57:57.378Z,100.00
2022-11-07T06:00:23.953Z,100.00
2022-11-07T06:02:57.697Z,100.00
2022-11-07T06:05:24.569Z,100.00
2022-11-07T06:07:51.066Z,100.00
2022-11-07T06:10:17.575Z,100.00
2022-11-07T06:12:43.968Z,100.00
2022-11-07T06:15:10.532Z,100.00
2022-11-07T06:17:37.196Z,100.00
2022-11-07T06:20:04.605Z,100.00
2022-11-07T06:22:31.096Z,100.00
2022-11-07T06:24:57.468Z,100.00
2022-11-07T06:27:23.846Z,100.00
2022-11-07T06:29:50.229Z,100.00
2022-11-07T06:32:16.603Z,100.00
2022-11-07T06:34:42.995Z,100.00
2022-11-07T06:37:09.395Z,100.00
2022-11-07T06:39:35.758Z,100.00
2022-11-07T06:42:02.135Z,100.00
2022-11-07T06:44:28.498Z,100.00
2022-11-07T06:46:54.868Z,100.00
2022-11-07T06:49:21.304Z,100.00
2022-11-07T06:51:48.118Z,100.00
2022-11-07T06:54:14.685Z,100.00
2022-11-07T06:56:41.048Z,100.00
2022-11-07T06:59:07.466Z,100.00
2022-11-07T07:01:33.935Z,100.00
2022-11-07T07:04:01.010Z,100.00
2022-11-07T07:06:27.439Z,100.00
2022-11-07T07:08:54.628Z,100.00
2022-11-07T07:11:21.014Z,100.00
2022-11-07T07:13:47.430Z,100.00
2022-11-07T07:16:13.802Z,100.00
2022-11-07T07:18:40.223Z,100.00
2022-11-07T07:21:16.153Z,100.00
2022-11-07T07:23:42.603Z,100.00
2022-11-07T07:26:13.980Z,100.00
2022-11-07T07:28:40.922Z,100.00
2022-11-07T07:31:08.807Z,100.00
2022-11-07T07:33:35.355Z,100.00
2022-11-07T07:36:01.888Z,100.00
2022-11-07T07:38:28.257Z,100.00
2022-11-07T07:40:54.618Z,100.00
2022-11-07T07:43:20.989Z,100.00
2022-11-07T07:45:47.370Z,100.00
2022-11-07T07:48:13.751Z,100.00
2022-11-07T07:50:41.529Z,100.00
2022-11-07T07:53:09.257Z,100.00
2022-11-07T07:55:35.934Z,100.00
2022-11-07T07:58:02.315Z,100.00
2022-11-07T08:00:28.708Z,100.00
2022-11-07T08:03:01.940Z,100.00
2022-11-07T08:05:28.429Z,100.00
2022-11-07T08:07:54.917Z,100.00
2022-11-07T08:10:42.905Z,100.00
2022-11-07T08:13:07.894Z,100.00
2022-11-07T08:15:34.786Z,100.00
2022-11-07T08:18:02.325Z,100.00
2022-11-07T08:20:28.718Z,100.00
2022-11-07T08:23:08.671Z,100.00
2022-11-07T08:25:39.235Z,100.00
2022-11-07T08:28:06.170Z,100.00
2022-11-07T08:30:32.765Z,100.00
2022-11-07T08:32:59.875Z,100.00
2022-11-07T08:35:26.502Z,100.00
2022-11-07T08:37:53.858Z,100.00
2022-11-07T08:40:20.357Z,100.00
2022-11-07T08:42:46.801Z,100.00
2022-11-07T08:45:13.416Z,100.00
2022-11-07T08:47:39.793Z,100.00
2022-11-07T08:50:06.394Z,100.00
2022-11-07T08:52:34.420Z,100.00
2022-11-07T08:55:00.810Z,100.00
2022-11-07T08:57:27.174Z,100.00
2022-11-07T08:59:53.613Z,100.00
2022-11-07T09:05:06.647Z,100.00
2022-11-07T09:07:33.090Z,100.00
2022-11-07T09:09:59.769Z,100.00
2022-11-07T09:12:26.242Z,100.00
2022-11-07T09:14:52.613Z,100.00
2022-11-07T09:17:19.013Z,100.00
2022-11-07T09:19:45.448Z,100.00
2022-11-07T09:22:11.897Z,100.00
2022-11-07T09:24:38.288Z,100.00
2022-11-07T09:27:04.684Z,100.00
2022-11-07T09:29:31.087Z,100.00
2022-11-07T09:31:57.491Z,100.00
2022-11-07T09:34:23.845Z,100.00
2022-11-07T09:36:50.212Z,100.00
2022-11-07T09:39:16.643Z,100.00
2022-11-07T09:41:54.947Z,100.00
2022-11-07T09:44:40.987Z,100.00
2022-11-07T09:47:14.641Z,100.00
2022-11-07T09:49:44.123Z,100.00
2022-11-07T09:52:38.522Z,99.95
2022-11-07T09:55:05.031Z,100.00
2022-11-07T09:57:34.372Z,99.80
2022-11-07T10:00:02.403Z,100.00
2022-11-07T10:02:31.002Z,100.00
2022-11-07T10:04:59.640Z,100.00
2022-11-07T10:07:31.301Z,99.55
2022-11-07T10:10:00.455Z,99.66
2022-11-07T10:12:45.589Z,100.00
2022-11-07T10:15:18.241Z,100.00
2022-11-07T10:17:44.601Z,99.76
2022-11-07T10:20:14.719Z,99.65
2022-11-07T10:22:56.356Z,99.60
2022-11-07T10:25:55.098Z,99.21
2022-11-07T10:28:22.119Z,99.00
2022-11-07T10:30:50.446Z,98.88
2022-11-07T10:33:17.068Z,99.37
2022-11-07T10:35:45.889Z,99.40
2022-11-07T10:38:17.533Z,98.94
2022-11-07T10:44:22.798Z,97.04
2022-11-07T10:46:51.631Z,97.19
2022-11-07T10:49:20.851Z,97.26
2022-11-07T10:51:47.667Z,97.69
2022-11-07T10:54:21.858Z,96.51
2022-11-07T10:56:57.312Z,96.47
2022-11-07T10:59:28.083Z,97.11
2022-11-07T11:01:58.655Z,97.06
2022-11-07T11:04:26.548Z,97.29
2022-11-07T11:06:56.612Z,96.21
2022-11-07T11:09:23.500Z,96.68
2022-11-07T11:11:51.822Z,96.81
2022-11-07T11:14:20.189Z,95.99
2022-11-07T11:16:51.452Z,96.36
2022-11-07T11:19:41.217Z,96.14
2022-11-07T11:22:18.182Z,95.81
2022-11-07T11:24:44.577Z,94.12
2022-11-07T11:27:14.094Z,94.07
2022-11-07T11:29:48.336Z,94.27
2022-11-07T11:32:22.538Z,94.33
2022-11-07T11:34:53.088Z,93.56
2022-11-07T11:37:20.976Z,92.42
2022-11-07T11:40:00.023Z,92.57
2022-11-07T11:42:32.357Z,93.20
2022-11-07T11:45:03.552Z,91.94
2022-11-07T11:47:41.596Z,92.42
2022-11-07T11:50:17.021Z,92.30
2022-11-07T11:52:44.100Z,92.14
2022-11-07T11:55:14.509Z,92.21
2022-11-07T11:57:53.229Z,91.81
2022-11-07T12:00:20.783Z,92.03
2022-11-07T12:02:47.592Z,91.90
2022-11-07T12:05:29.185Z,92.01
2022-11-07T12:07:58.681Z,91.86
2022-11-07T12:10:25.057Z,90.58
2022-11-07T12:13:00.420Z,91.34
2022-11-07T12:15:32.792Z,90.86
2022-11-07T12:18:06.126Z,90.33
2022-11-07T12:20:38.725Z,90.70
2022-11-07T12:23:07.954Z,89.93
2022-11-07T12:25:40.387Z,90.32
2022-11-07T12:28:18.980Z,89.77
2022-11-07T12:30:51.449Z,89.86
2022-11-07T12:33:36.858Z,90.07
2022-11-07T12:36:11.006Z,90.06
2022-11-07T12:38:56.217Z,90.94
2022-11-07T12:41:28.465Z,92.26
2022-11-07T12:44:06.692Z,92.19
2022-11-07T12:46:53.335Z,92.25
2022-11-07T12:49:29.070Z,93.30
2022-11-07T12:52:01.083Z,94.23
2022-11-07T12:54:40.063Z,94.48
2022-11-07T12:57:15.670Z,94.56
2022-11-07T12:59:44.332Z,94.86
2022-11-07T13:02:16.904Z,94.69
2022-11-07T13:04:53.110Z,95.41
2022-11-07T13:07:29.190Z,94.81
2022-11-07T13:09:55.552Z,95.42
2022-11-07T13:12:26.996Z,95.19
2022-11-07T13:14:53.693Z,95.66
2022-11-07T13:17:24.096Z,95.99
2022-11-07T13:20:00.993Z,96.43
2022-11-07T13:22:38.282Z,96.16
2022-11-07T13:25:10.552Z,96.44
2022-11-07T13:27:40.941Z,96.73
2022-11-07T13:30:19.140Z,96.56
2022-11-07T13:32:47.547Z,96.23
2022-11-07T13:35:22.858Z,96.00
2022-11-07T13:37:58.312Z,97.01
2022-11-07T13:40:24.769Z,97.58
2022-11-07T13:42:56.363Z,97.32
2022-11-07T13:45:31.606Z,97.68
2022-11-07T13:48:04.157Z,97.73
2022-11-07T13:50:54.231Z,97.92
2022-11-07T13:53:29.496Z,98.12
2022-11-07T13:56:00.635Z,97.83
2022-11-07T13:58:28.562Z,97.96
2022-11-07T14:00:55.175Z,97.89
2022-11-07T14:03:29.196Z,98.08
2022-11-07T14:05:56.131Z,98.52
2022-11-07T14:08:29.009Z,98.57
2022-11-07T14:10:55.417Z,98.86
2022-11-07T14:13:24.847Z,98.63
2022-11-07T14:15:54.006Z,98.60
2022-11-07T14:18:21.228Z,98.33
2022-11-07T14:20:53.468Z,98.38
2022-11-07T14:23:23.782Z,98.15
2022-11-07T14:26:03.547Z,98.20
2022-11-07T14:28:34.838Z,98.44
2022-11-07T14:31:02.489Z,98.15
2022-11-07T14:33:28.902Z,98.18
2022-11-07T14:35:55.414Z,97.83
2022-11-07T14:38:25.478Z,98.04
2022-11-07T14:40:53.310Z,98.29
2022-11-07T14:43:21.052Z,98.03
2022-11-07T14:46:11.340Z,97.97
2022-11-07T14:48:35.946Z,98.17
2022-11-07T14:51:02.838Z,98.19
2022-11-07T14:53:37.139Z,98.18
2022-11-07T14:56:06.293Z,98.57
2022-11-07T14:58:32.952Z,98.39
2022-11-07T15:01:08.521Z,98.36
2022-11-07T15:03:36.840Z,97.57
2022-11-07T15:06:03.722Z,97.45
2022-11-07T15:08:34.779Z,96.86
2022-11-07T15:11:01.142Z,96.54
2022-11-07T15:13:29.004Z,96.39
2022-11-07T15:16:15.446Z,96.22
2022-11-07T15:18:43.730Z,96.35
2022-11-07T15:21:11.703Z,96.13
2022-11-07T15:23:38.133Z,95.80
2022-11-07T15:26:07.626Z,95.81
2022-11-07T15:28:50.299Z,95.72
2022-11-07T15:31:24.710Z,95.51
2022-11-07T15:33:52.346Z,95.87
2022-11-07T15:36:19.139Z,95.64
2022-11-07T15:38:45.621Z,95.83
2022-11-07T15:41:12.605Z,96.18
2022-11-07T15:43:39.020Z,96.49
2022-11-07T15:46:24.316Z,96.57
2022-11-07T15:48:50.807Z,96.63
2022-11-07T15:51:17.317Z,96.39
2022-11-07T15:53:43.741Z,96.79
2022-11-07T15:56:13.142Z,96.65
2022-11-07T15:58:39.613Z,96.27
2022-11-07T16:01:06.068Z,96.22
2022-11-07T16:03:32.523Z,95.93
2022-11-07T16:06:01.681Z,95.71
2022-11-07T16:08:29.159Z,95.30
2022-11-07T16:11:01.021Z,95.47
2022-11-07T16:13:27.992Z,95.11
2022-11-07T16:15:59.645Z,95.32
2022-11-07T16:18:27.120Z,95.35
2022-11-07T16:20:53.732Z,95.40
2022-11-07T16:23:20.173Z,95.29
2022-11-07T16:25:48.313Z,95.58
2022-11-07T16:28:18.100Z,95.56
2022-11-07T16:30:44.813Z,95.44
2022-11-07T16:33:12.282Z,95.39
2022-11-07T16:35:39.127Z,95.60
2022-11-07T16:38:11.430Z,95.86
2022-11-07T16:40:37.844Z,95.15
2022-11-07T16:43:05.332Z,95.15
2022-11-07T16:45:31.770Z,95.28
2022-11-07T16:47:59.006Z,94.64
2022-11-07T16:50:25.374Z,94.30
2022-11-07T16:52:51.785Z,94.24
2022-11-07T16:55:19.051Z,94.59
2022-11-07T16:57:45.908Z,96.23
2022-11-07T17:00:17.496Z,96.55
2022-11-07T17:02:44.244Z,96.33
2022-11-07T17:05:10.731Z,95.82
2022-11-07T17:07:37.107Z,95.57
2022-11-07T17:10:03.915Z,95.43
2022-11-07T17:12:30.485Z,95.76
2022-11-07T17:14:57.125Z,95.91
2022-11-07T17:17:23.765Z,95.37
2022-11-07T17:19:50.206Z,95.97
2022-11-07T17:22:17.813Z,95.81
2022-11-07T17:24:45.293Z,95.68
2022-11-07T17:27:20.779Z,95.51
2022-11-07T17:29:47.262Z,95.17
2022-11-07T17:32:15.996Z,95.24
2022-11-07T17:34:42.433Z,94.79
2022-11-07T17:37:13.415Z,94.59
2022-11-07T17:39:39.822Z,94.89
2022-11-07T17:42:06.232Z,94.24
2022-11-07T17:44:32.616Z,94.23
2022-11-07T17:47:04.503Z,95.17
2022-11-07T17:49:30.894Z,95.43
2022-11-07T17:51:57.825Z,94.88
2022-11-07T17:54:29.282Z,94.26
2022-11-07T17:56:56.092Z,93.77
2022-11-07T17:59:23.346Z,93.61
2022-11-07T18:01:49.907Z,94.40
2022-11-07T18:04:16.404Z,94.71
2022-11-07T18:06:42.824Z,94.52
2022-11-07T18:09:13.154Z,94.04
2022-11-07T18:11:39.540Z,94.55
2022-11-07T18:14:05.991Z,94.76
2022-11-07T18:16:33.675Z,94.27
2022-11-07T18:19:00.682Z,94.56
2022-11-07T18:21:27.381Z,94.42
2022-11-07T18:23:53.899Z,94.54
2022-11-07T18:26:32.312Z,94.40
2022-11-07T18:29:03.124Z,94.36
2022-11-07T18:31:29.653Z,93.22
2022-11-07T18:33:57.693Z,94.04
2022-11-07T18:36:25.760Z,94.84
2022-11-07T18:38:52.206Z,95.34
2022-11-07T18:41:20.590Z,95.11
2022-11-07T18:43:47.107Z,95.24
2022-11-07T18:46:16.900Z,95.22
2022-11-07T18:48:43.336Z,95.72
2022-11-07T18:51:11.468Z,95.23
2022-11-07T18:53:38.473Z,95.24
2022-11-07T18:56:06.562Z,94.81
2022-11-07T18:58:36.897Z,95.16
2022-11-07T19:01:04.726Z,95.13
2022-11-07T19:03:33.588Z,94.89
2022-11-07T19:06:02.665Z,94.89
2022-11-07T19:08:33.526Z,95.11
2022-11-07T19:11:00.765Z,95.51
2022-11-07T19:13:27.937Z,95.63
2022-11-07T19:15:54.468Z,95.84
2022-11-07T19:18:21.296Z,95.75
2022-11-07T19:20:48.361Z,95.81
2022-11-07T19:23:15.496Z,95.94
2022-11-07T19:25:42.527Z,96.30
2022-11-07T19:28:09.541Z,96.70
2022-11-07T19:30:36.425Z,97.28
2022-11-07T19:33:03.559Z,96.81
2022-11-07T19:35:31.002Z,97.01
2022-11-07T19:37:57.787Z,98.05
2022-11-07T19:40:24.360Z,97.54
2022-11-07T19:42:51.568Z,98.13
2022-11-07T19:45:18.808Z,97.27
2022-11-07T19:47:45.447Z,97.12
2022-11-07T19:50:12.156Z,97.03
2022-11-07T19:52:38.594Z,97.72
2022-11-07T19:55:05.265Z,98.23
2022-11-07T19:57:31.753Z,98.44
2022-11-07T19:59:58.128Z,98.55
2022-11-07T20:02:34.446Z,98.37
2022-11-07T20:05:02.959Z,98.77
2022-11-07T20:07:29.359Z,99.60
2022-11-07T20:09:56.810Z,100.00
2022-11-07T20:12:23.211Z,100.00
2022-11-07T20:14:49.594Z,100.00
2022-11-07T20:17:16.019Z,100.00
2022-11-07T20:19:42.415Z,100.00
2022-11-07T20:22:12.018Z,100.00
2022-11-07T20:24:38.561Z,100.00
2022-11-07T20:27:04.974Z,100.00
2022-11-07T20:29:31.841Z,100.00
2022-11-07T20:31:58.382Z,100.00
2022-11-07T20:34:24.870Z,100.00
2022-11-07T20:36:53.887Z,100.00
2022-11-07T20:39:20.279Z,100.00
2022-11-07T20:41:47.371Z,100.00
2022-11-07T20:44:15.151Z,100.00
2022-11-07T20:46:43.074Z,100.00
2022-11-07T20:49:11.577Z,100.00
2022-11-07T20:51:38.006Z,100.00
2022-11-07T20:54:04.592Z,100.00
2022-11-07T20:56:31.470Z,100.00
2022-11-07T20:58:58.233Z,100.00
2022-11-07T21:01:26.085Z,100.00
2022-11-07T21:03:52.644Z,100.00
2022-11-07T21:06:19.448Z,100.00
2022-11-07T21:08:47.310Z,100.00
2022-11-07T21:11:14.359Z,100.00
2022-11-07T21:13:42.073Z,100.00
2022-11-07T21:16:09.214Z,100.00
2022-11-07T21:18:38.715Z,100.00
2022-11-07T21:21:06.332Z,100.00
2022-11-07T21:23:32.736Z,100.00
2022-11-07T21:25:59.140Z,100.00
2022-11-07T21:28:26.385Z,100.00
2022-11-07T21:30:59.631Z,100.00
2022-11-07T21:33:26.097Z,100.00
2022-11-07T21:35:52.552Z,100.00
2022-11-07T21:38:19.137Z,100.00
2022-11-07T21:40:45.535Z,100.00
2022-11-07T21:43:12.253Z,100.00
2022-11-07T21:45:38.810Z,100.00
2022-11-07T21:48:05.343Z,100.00
2022-11-07T21:50:44.285Z,100.00
2022-11-07T21:53:11.596Z,100.00
2022-11-07T21:55:37.980Z,100.00
2022-11-07T21:58:04.473Z,100.00
2022-11-07T22:00:35.855Z,100.00
2022-11-07T22:03:02.863Z,100.00
2022-11-07T22:05:29.250Z,100.00
2022-11-07T22:07:55.638Z,100.00
2022-11-07T22:10:22.003Z,100.00
2022-11-07T22:12:48.386Z,100.00
2022-11-07T22:15:14.815Z,100.00
2022-11-07T22:17:41.183Z,100.00
2022-11-07T22:20:07.879Z,100.00
2022-11-07T22:22:36.182Z,100.00
2022-11-07T22:25:02.593Z,100.00
2022-11-07T22:27:28.993Z,100.00
2022-11-07T22:29:55.372Z,100.00
2022-11-07T22:32:21.831Z,100.00
2022-11-07T22:34:48.300Z,100.00
2022-11-07T22:37:14.673Z,100.00
2022-11-07T22:39:41.046Z,100.00
2022-11-07T22:42:07.521Z,100.00
2022-11-07T22:44:33.883Z,100.00
2022-11-07T22:47:00.254Z,100.00
2022-11-07T22:49:26.752Z,100.00
2022-11-07T22:51:53.129Z,100.00
2022-11-07T22:54:19.507Z,100.00
2022-11-07T22:56:45.914Z,100.00
2022-11-07T22:59:12.354Z,100.00
2022-11-07T23:01:40.653Z,100.00
2022-11-07T23:04:08.028Z,100.00
2022-11-07T23:06:36.531Z,100.00
2022-11-07T23:09:02.919Z,100.00
2022-11-07T23:11:49.346Z,100.00
2022-11-07T23:14:17.905Z,100.00
2022-11-07T23:16:51.786Z,100.00
2022-11-07T23:19:19.196Z,100.00
2022-11-07T23:21:45.721Z,100.00
2022-11-07T23:24:12.294Z,100.00
2022-11-07T23:26:39.424Z,100.00
2022-11-07T23:29:10.803Z,100.00
2022-11-07T23:31:38.516Z,100.00
2022-11-07T23:34:04.884Z,100.00
2022-11-07T23:36:31.252Z,100.00
2022-11-07T23:38:57.638Z,100.00
2022-11-07T23:41:24.101Z,100.00
2022-11-07T23:43:52.609Z,100.00
2022-11-07T23:46:37.933Z,100.00
2022-11-07T23:49:22.925Z,100.00
2022-11-07T23:51:49.314Z,100.00
2022-11-07T23:54:34.244Z,100.00
2022-11-07T23:57:00.771Z,100.00
2022-11-07T23:59:45.545Z,100.00
